createdAt,value
2023-03-30T00:01:17.499Z,99833.69
2023-03-30T00:02:54.035Z,99830.13
2023-03-30T00:04:27.582Z,99834.38
2023-03-30T00:06:05.406Z,99833.41
2023-03-30T00:07:44.904Z,99822.56
2023-03-30T00:09:16.733Z,99821.59
2023-03-30T00:10:48.596Z,99823.31
2023-03-30T00:12:21.034Z,99804.53
2023-03-30T00:13:52.964Z,99794.50
2023-03-30T00:15:25.020Z,99782.94
2023-03-30T00:16:57.250Z,99758.03
2023-03-30T00:18:30.153Z,99742.91
2023-03-30T00:20:02.477Z,99724.38
2023-03-30T00:21:35.297Z,99712.78
2023-03-30T00:23:07.240Z,99709.97
2023-03-30T00:24:39.059Z,99712.19
2023-03-30T00:26:10.852Z,99714.13
2023-03-30T00:27:43.561Z,99728.53
2023-03-30T00:29:17.198Z,99727.53
2023-03-30T00:30:49.664Z,99731.34
2023-03-30T00:32:21.883Z,99724.47
2023-03-30T00:33:54.532Z,99723.63
2023-03-30T00:35:30.737Z,99729.00
2023-03-30T00:37:03.391Z,99743.41
2023-03-30T00:38:35.188Z,99749.72
2023-03-30T00:40:09.533Z,99754.38
2023-03-30T00:41:41.860Z,99750.00
2023-03-30T00:43:13.694Z,99741.06
2023-03-30T00:45:09.338Z,99731.44
2023-03-30T00:46:41.186Z,99740.09
2023-03-30T00:48:22.267Z,99736.56
2023-03-30T00:49:55.523Z,99720.34
2023-03-30T00:51:28.514Z,99713.16
2023-03-30T00:53:02.606Z,99714.84
2023-03-30T00:54:34.712Z,99708.63
2023-03-30T00:56:08.882Z,99719.34
2023-03-30T00:57:43.515Z,99714.00
2023-03-30T00:59:16.005Z,99716.81
2023-03-30T01:00:48.751Z,99714.97
2023-03-30T01:02:21.855Z,99717.66
2023-03-30T01:03:55.416Z,99714.84
2023-03-30T01:05:28.576Z,99708.75
2023-03-30T01:07:01.264Z,99709.75
2023-03-30T01:08:34.280Z,99694.59
2023-03-30T01:10:08.642Z,99684.00
2023-03-30T01:11:40.516Z,99672.06
2023-03-30T01:13:14.485Z,99660.34
2023-03-30T01:14:47.552Z,99648.75
2023-03-30T01:16:33.704Z,99644.38
2023-03-30T01:18:24.702Z,99634.50
2023-03-30T01:20:13.061Z,99630.72
2023-03-30T01:22:00.378Z,99632.91
2023-03-30T01:23:53.369Z,99633.16
2023-03-30T01:26:04.649Z,99622.66
2023-03-30T01:27:46.253Z,99619.75
2023-03-30T01:29:32.015Z,99618.53
2023-03-30T01:32:02.266Z,99618.91
2023-03-30T01:34:19.743Z,99618.91
2023-03-30T01:36:05.192Z,99604.16
2023-03-30T01:38:04.432Z,99604.91
2023-03-30T01:39:57.298Z,99599.88
2023-03-30T01:41:58.444Z,99600.88
2023-03-30T01:43:51.352Z,99613.44
2023-03-30T01:45:44.108Z,99614.53
2023-03-30T01:47:38.633Z,99605.63
2023-03-30T01:49:17.280Z,99599.78
2023-03-30T01:51:00.356Z,99607.94
2023-03-30T01:52:41.384Z,99604.53
2023-03-30T01:54:20.746Z,99603.56
2023-03-30T01:56:15.661Z,99596.59
2023-03-30T01:58:05.470Z,99590.38
2023-03-30T01:59:44.474Z,99587.81
2023-03-30T02:01:17.935Z,99596.59
2023-03-30T02:03:08.949Z,99600.75
2023-03-30T02:04:43.212Z,99594.16
2023-03-30T02:06:25.820Z,99593.41
2023-03-30T02:08:03.743Z,99601.47
2023-03-30T02:09:38.964Z,99613.91
2023-03-30T02:11:11.622Z,99603.28
2023-03-30T02:12:45.197Z,99606.81
2023-03-30T02:14:20.356Z,99596.09
2023-03-30T02:15:59.073Z,99590.13
2023-03-30T02:17:31.208Z,99587.59
2023-03-30T02:19:04.552Z,99584.16
2023-03-30T02:20:36.766Z,99585.25
2023-03-30T02:22:08.886Z,99584.41
2023-03-30T02:23:45.477Z,99582.09
2023-03-30T02:25:17.622Z,99586.47
2023-03-30T02:26:52.591Z,99580.66
2023-03-30T02:28:24.395Z,99572.72
2023-03-30T02:29:56.695Z,99560.28
2023-03-30T02:31:28.590Z,99556.03
2023-03-30T02:33:00.803Z,99560.53
2023-03-30T02:35:04.874Z,99556.75
2023-03-30T02:37:10.455Z,99565.63
2023-03-30T02:38:59.329Z,99572.13
2023-03-30T02:41:11.904Z,99566.16
2023-03-30T02:43:00.661Z,99566.25
2023-03-30T02:44:50.439Z,99563.81
2023-03-30T02:46:34.101Z,99566.63
2023-03-30T02:48:23.217Z,99553.47
2023-03-30T02:50:03.378Z,99562.47
2023-03-30T02:51:46.387Z,99546.75
2023-03-30T02:53:34.764Z,99535.91
2023-03-30T02:55:23.232Z,99536.38
2023-03-30T02:57:09.966Z,99529.81
2023-03-30T02:58:52.200Z,99521.16
2023-03-30T03:00:41.782Z,99531.25
2023-03-30T03:02:26.317Z,99522.34
2023-03-30T03:04:07.756Z,99512.84
2023-03-30T03:05:48.776Z,99501.78
2023-03-30T03:07:22.004Z,99495.47
2023-03-30T03:08:55.801Z,99501.06
2023-03-30T03:10:31.036Z,99495.69
2023-03-30T03:12:03.348Z,99497.38
2023-03-30T03:13:40.923Z,99495.94
2023-03-30T03:15:12.691Z,99496.78
2023-03-30T03:16:54.698Z,99504.94
2023-03-30T03:18:29.343Z,99510.31
2023-03-30T03:20:03.760Z,99505.81
2023-03-30T03:21:36.828Z,99501.28
2023-03-30T03:23:09.006Z,99491.56
2023-03-30T03:24:48.280Z,99483.53
2023-03-30T03:26:20.206Z,99483.53
2023-03-30T03:27:52.144Z,99479.25
2023-03-30T03:29:27.402Z,99474.75
2023-03-30T03:31:00.188Z,99466.72
2023-03-30T03:32:32.194Z,99465.88
2023-03-30T03:34:04.462Z,99464.41
2023-03-30T03:36:00.191Z,99452.59
2023-03-30T03:37:33.404Z,99457.22
2023-03-30T03:39:05.191Z,99456.25
2023-03-30T03:40:37.248Z,99457.00
2023-03-30T03:42:09.037Z,99459.91
2023-03-30T03:43:48.248Z,99467.69
2023-03-30T03:45:22.257Z,99464.66
2023-03-30T03:47:00.257Z,99466.84
2023-03-30T03:48:32.143Z,99470.38
2023-03-30T03:50:07.142Z,99473.28
2023-03-30T03:51:39.158Z,99468.78
2023-03-30T03:53:12.089Z,99475.13
2023-03-30T03:54:43.886Z,99470.47
2023-03-30T03:56:15.658Z,99471.59
2023-03-30T03:57:47.459Z,99467.94
2023-03-30T03:59:19.256Z,99472.56
2023-03-30T04:00:58.797Z,99472.06
2023-03-30T04:02:30.827Z,99467.56
2023-03-30T04:04:02.654Z,99458.94
2023-03-30T04:05:35.044Z,99457.09
2023-03-30T04:07:06.842Z,99442.00
2023-03-30T04:08:38.769Z,99441.38
2023-03-30T04:10:40.987Z,99443.09
2023-03-30T04:12:26.417Z,99471.81
2023-03-30T04:14:14.256Z,99466.69
2023-03-30T04:15:57.738Z,99459.03
2023-03-30T04:17:50.202Z,99458.41
2023-03-30T04:19:42.144Z,99455.75
2023-03-30T04:21:47.333Z,99445.28
2023-03-30T04:23:40.245Z,99447.81
2023-03-30T04:25:29.326Z,99452.31
2023-03-30T04:27:17.117Z,99454.88
2023-03-30T04:29:20.958Z,99460.59
2023-03-30T04:31:13.190Z,99466.94
2023-03-30T04:33:09.585Z,99482.75
2023-03-30T04:34:59.828Z,99473.34
2023-03-30T04:36:50.044Z,99484.06
2023-03-30T04:38:43.096Z,99485.16
2023-03-30T04:40:36.711Z,99474.44
2023-03-30T04:42:30.535Z,99467.50
2023-03-30T04:44:22.228Z,99463.75
2023-03-30T04:46:06.232Z,99453.88
2023-03-30T04:48:02.574Z,99447.91
2023-03-30T04:50:08.284Z,99460.22
2023-03-30T04:51:58.364Z,99455.94
2023-03-30T04:53:59.478Z,99456.91
2023-03-30T04:55:54.539Z,99472.47
2023-03-30T04:57:40.628Z,99476.03
2023-03-30T04:59:32.364Z,99466.03
2023-03-30T05:01:27.651Z,99465.19
2023-03-30T05:03:23.578Z,99464.81
2023-03-30T05:05:09.299Z,99455.84
2023-03-30T05:06:57.475Z,99452.19
2023-03-30T05:08:47.647Z,99461.91
2023-03-30T05:10:29.253Z,99456.31
2023-03-30T05:12:18.848Z,99443.53
2023-03-30T05:14:11.175Z,99440.78
2023-03-30T05:15:58.459Z,99433.22
2023-03-30T05:17:42.258Z,99438.09
2023-03-30T05:19:29.607Z,99438.69
2023-03-30T05:21:19.785Z,99455.28
2023-03-30T05:23:08.771Z,99444.06
2023-03-30T05:24:59.172Z,99442.75
2023-03-30T05:26:49.676Z,99440.44
2023-03-30T05:28:26.974Z,99448.94
2023-03-30T05:30:25.123Z,99445.69
2023-03-30T05:32:22.819Z,99433.63
2023-03-30T05:34:13.191Z,99422.66
2023-03-30T05:35:51.777Z,99429.50
2023-03-30T05:37:48.898Z,99431.78
2023-03-30T05:39:48.486Z,99422.75
2023-03-30T05:41:49.075Z,99413.50
2023-03-30T05:43:41.160Z,99411.31
2023-03-30T05:45:48.533Z,99411.78
2023-03-30T05:47:43.402Z,99415.91
2023-03-30T05:49:26.697Z,99405.53
2023-03-30T05:51:17.961Z,99412.09
2023-03-30T05:53:06.878Z,99415.25
2023-03-30T05:54:51.120Z,99418.13
2023-03-30T05:56:42.549Z,99425.31
2023-03-30T05:58:30.310Z,99430.75
2023-03-30T06:00:17.786Z,99433.63
2023-03-30T06:02:01.085Z,99428.34
2023-03-30T06:03:33.364Z,99437.47
2023-03-30T06:05:06.791Z,99449.97
2023-03-30T06:06:38.718Z,99434.31
2023-03-30T06:08:12.293Z,99437.59
2023-03-30T06:09:44.411Z,99444.03
2023-03-30T06:11:26.202Z,99433.50
2023-03-30T06:13:10.217Z,99434.66
2023-03-30T06:14:55.622Z,99425.91
2023-03-30T06:16:32.163Z,99434.19
2023-03-30T06:18:04.897Z,99429.97
2023-03-30T06:19:39.950Z,99446.84
2023-03-30T06:21:11.943Z,99439.94
2023-03-30T06:23:11.613Z,99432.38
2023-03-30T06:24:43.531Z,99430.41
2023-03-30T06:26:15.911Z,99428.47
2023-03-30T06:27:47.944Z,99434.44
2023-03-30T06:29:20.442Z,99428.81
2023-03-30T06:30:52.392Z,99425.03
2023-03-30T06:32:27.489Z,99421.19
2023-03-30T06:34:23.457Z,99422.03
2023-03-30T06:35:55.554Z,99407.44
2023-03-30T06:37:29.052Z,99412.38
2023-03-30T06:39:05.930Z,99403.13
2023-03-30T06:40:39.444Z,99398.41
2023-03-30T06:42:12.201Z,99392.69
2023-03-30T06:44:14.994Z,99390.81
2023-03-30T06:45:52.285Z,99387.81
2023-03-30T06:47:24.302Z,99394.00
2023-03-30T06:48:56.370Z,99398.50
2023-03-30T06:50:49.426Z,99398.44
2023-03-30T06:52:26.479Z,99383.34
2023-03-30T06:53:58.377Z,99377.34
2023-03-30T06:55:30.500Z,99375.06
2023-03-30T06:57:02.512Z,99367.34
2023-03-30T06:58:34.605Z,99378.66
2023-03-30T07:00:15.417Z,99374.81
2023-03-30T07:01:47.561Z,99363.72
2023-03-30T07:03:35.144Z,99365.09
2023-03-30T07:05:36.295Z,99362.09
2023-03-30T07:07:18.382Z,99355.94
2023-03-30T07:08:50.331Z,99354.78
2023-03-30T07:10:27.362Z,99355.16
2023-03-30T07:12:01.232Z,99346.44
2023-03-30T07:13:34.657Z,99348.84
2023-03-30T07:15:08.231Z,99361.56
2023-03-30T07:16:41.008Z,99356.25
2023-03-30T07:18:13.647Z,99361.16
2023-03-30T07:19:46.853Z,99356.00
2023-03-30T07:21:19.094Z,99343.22
2023-03-30T07:22:52.493Z,99338.41
2023-03-30T07:24:24.342Z,99347.06
2023-03-30T07:25:56.438Z,99347.84
2023-03-30T07:27:38.249Z,99334.34
2023-03-30T07:29:10.142Z,99324.31
2023-03-30T07:30:45.446Z,99322.84
2023-03-30T07:32:18.719Z,99331.34
2023-03-30T07:33:51.358Z,99327.31
2023-03-30T07:35:27.860Z,99323.31
2023-03-30T07:37:01.848Z,99317.88
2023-03-30T07:38:37.210Z,99327.38
2023-03-30T07:40:10.121Z,99301.69
2023-03-30T07:41:43.235Z,99307.56
2023-03-30T07:43:15.204Z,99308.47
2023-03-30T07:44:48.978Z,99319.13
2023-03-30T07:46:22.829Z,99323.84
2023-03-30T07:47:57.994Z,99316.41
2023-03-30T07:49:29.921Z,99315.38
2023-03-30T07:51:07.461Z,99323.31
2023-03-30T07:52:42.575Z,99322.94
2023-03-30T07:54:16.239Z,99323.56
2023-03-30T07:56:08.535Z,99331.00
2023-03-30T07:57:47.439Z,99323.19
2023-03-30T07:59:20.563Z,99314.63
2023-03-30T08:00:54.108Z,99317.66
2023-03-30T08:02:52.245Z,99319.25
2023-03-30T08:04:26.524Z,99311.50
2023-03-30T08:06:04.489Z,99318.41
2023-03-30T08:07:40.881Z,99307.13
2023-03-30T08:09:19.199Z,99303.34
2023-03-30T08:10:51.213Z,99298.50
2023-03-30T08:12:23.147Z,99297.41
2023-03-30T08:13:55.011Z,99289.22
2023-03-30T08:15:27.963Z,99295.75
2023-03-30T08:17:00.124Z,99290.63
2023-03-30T08:18:32.108Z,99281.53
2023-03-30T08:20:08.301Z,99282.84
2023-03-30T08:21:40.198Z,99285.38
2023-03-30T08:23:12.297Z,99292.34
2023-03-30T08:24:44.283Z,99288.56
2023-03-30T08:26:16.269Z,99290.25
2023-03-30T08:27:48.098Z,99288.00
2023-03-30T08:29:20.546Z,99286.78
2023-03-30T08:30:53.471Z,99285.59
2023-03-30T08:32:25.447Z,99297.78
2023-03-30T08:33:57.390Z,99290.44
2023-03-30T08:35:29.312Z,99298.06
2023-03-30T08:37:01.400Z,99304.19
2023-03-30T08:38:33.580Z,99302.56
2023-03-30T08:40:11.133Z,99308.97
2023-03-30T08:42:12.016Z,99299.50
2023-03-30T08:43:52.958Z,99308.59
2023-03-30T08:45:25.236Z,99305.03
2023-03-30T08:46:57.841Z,99305.88
2023-03-30T08:48:37.861Z,99304.19
2023-03-30T08:50:51.220Z,99304.31
2023-03-30T08:52:25.262Z,99294.72
2023-03-30T08:54:01.693Z,99301.72
2023-03-30T08:55:47.464Z,99296.19
2023-03-30T08:57:37.571Z,99307.63
2023-03-30T08:59:27.939Z,99312.97
2023-03-30T09:01:17.207Z,99317.91
2023-03-30T09:02:53.473Z,99326.25
2023-03-30T09:04:43.595Z,99329.72
2023-03-30T09:06:45.124Z,99334.59
2023-03-30T09:08:24.756Z,99330.19
2023-03-30T09:09:58.093Z,99346.19
2023-03-30T09:11:34.675Z,99347.59
2023-03-30T09:13:08.127Z,99335.75
2023-03-30T09:14:45.978Z,99338.84
2023-03-30T09:16:33.549Z,99347.03
2023-03-30T09:18:24.190Z,99346.56
2023-03-30T09:20:07.839Z,99353.56
2023-03-30T09:21:39.926Z,99362.75
2023-03-30T09:23:15.781Z,99361.44
2023-03-30T09:24:48.115Z,99364.13
2023-03-30T09:26:50.469Z,99363.97
2023-03-30T09:28:43.927Z,99360.72
2023-03-30T09:30:22.403Z,99363.44
2023-03-30T09:32:25.308Z,99373.13
2023-03-30T09:34:23.253Z,99380.28
2023-03-30T09:36:15.689Z,99377.25
2023-03-30T09:37:47.613Z,99382.69
2023-03-30T09:39:22.217Z,99366.56
2023-03-30T09:41:13.976Z,99379.16
2023-03-30T09:42:56.036Z,99385.63
2023-03-30T09:44:44.530Z,99376.84
2023-03-30T09:46:16.857Z,99370.94
2023-03-30T09:47:48.878Z,99387.78
2023-03-30T09:49:21.188Z,99381.81
2023-03-30T09:50:53.074Z,99385.28
2023-03-30T09:52:28.006Z,99387.47
2023-03-30T09:54:03.046Z,99390.72
2023-03-30T09:55:36.334Z,99391.06
2023-03-30T09:57:40.458Z,99391.28
2023-03-30T09:59:32.967Z,99388.75
2023-03-30T10:01:15.124Z,99390.78
2023-03-30T10:02:57.136Z,99391.97
2023-03-30T10:04:29.182Z,99395.72
2023-03-30T10:06:02.226Z,99395.03
2023-03-30T10:07:41.879Z,99389.81
2023-03-30T10:09:15.191Z,99394.72
2023-03-30T10:10:54.095Z,99390.63
2023-03-30T10:12:27.437Z,99390.97
2023-03-30T10:13:59.890Z,99388.97
2023-03-30T10:15:32.679Z,99391.34
2023-03-30T10:17:06.575Z,99372.91
2023-03-30T10:18:44.544Z,99368.16
2023-03-30T10:20:20.886Z,99375.97
2023-03-30T10:21:59.024Z,99358.84
2023-03-30T10:23:34.389Z,99365.66
2023-03-30T10:25:14.749Z,99360.25
2023-03-30T10:26:47.047Z,99358.88
2023-03-30T10:28:27.425Z,99358.91
2023-03-30T10:30:12.858Z,99362.78
2023-03-30T10:31:47.935Z,99366.69
2023-03-30T10:33:20.752Z,99361.59
2023-03-30T10:34:55.284Z,99379.91
2023-03-30T10:36:38.732Z,99375.84
2023-03-30T10:38:13.645Z,99369.41
2023-03-30T10:39:48.225Z,99391.41
2023-03-30T10:41:24.292Z,99390.72
2023-03-30T10:42:58.407Z,99403.28
2023-03-30T10:44:33.327Z,99393.44
2023-03-30T10:46:19.798Z,99386.34
2023-03-30T10:48:02.989Z,99389.72
2023-03-30T10:49:46.974Z,99380.91
2023-03-30T10:51:49.650Z,99368.41
2023-03-30T10:53:30.941Z,99358.06
2023-03-30T10:55:02.727Z,99365.34
2023-03-30T10:56:39.559Z,99353.16
2023-03-30T10:58:28.967Z,99344.84
2023-03-30T11:00:31.587Z,99350.25
2023-03-30T11:02:22.523Z,99349.78
2023-03-30T11:04:04.479Z,99361.59
2023-03-30T11:05:48.437Z,99360.09
2023-03-30T11:07:40.666Z,99359.56
2023-03-30T11:09:21.173Z,99375.16
2023-03-30T11:10:55.303Z,99378.50
2023-03-30T11:12:35.306Z,99386.31
2023-03-30T11:14:17.304Z,99373.09
2023-03-30T11:15:59.491Z,99374.09
2023-03-30T11:17:51.370Z,99374.25
2023-03-30T11:19:25.930Z,99388.63
2023-03-30T11:21:22.159Z,99375.72
2023-03-30T11:23:02.002Z,99386.06
2023-03-30T11:24:35.666Z,99379.09
2023-03-30T11:26:12.936Z,99380.91
2023-03-30T11:27:56.233Z,99384.81
2023-03-30T11:29:48.134Z,99382.03
2023-03-30T11:31:56.951Z,99376.59
2023-03-30T11:33:39.177Z,99369.41
2023-03-30T11:35:19.401Z,99357.84
2023-03-30T11:37:00.225Z,99359.84
2023-03-30T11:38:59.454Z,99347.59
2023-03-30T11:40:53.578Z,99337.91
2023-03-30T11:42:30.172Z,99337.47
2023-03-30T11:44:02.098Z,99350.84
2023-03-30T11:45:40.437Z,99327.38
2023-03-30T11:47:30.866Z,99323.06
2023-03-30T11:49:08.240Z,99340.94
2023-03-30T11:50:57.343Z,99324.66
2023-03-30T11:52:32.287Z,99320.47
2023-03-30T11:54:35.566Z,99325.44
2023-03-30T11:56:33.668Z,99315.66
2023-03-30T11:58:16.967Z,99310.19
2023-03-30T12:00:18.064Z,99305.75
2023-03-30T12:02:10.705Z,99309.13
2023-03-30T12:03:45.329Z,99307.03
2023-03-30T12:05:25.220Z,99309.91
2023-03-30T12:07:01.942Z,99305.28
2023-03-30T12:08:55.405Z,99310.66
2023-03-30T12:10:39.786Z,99301.09
2023-03-30T12:12:18.084Z,99295.16
2023-03-30T12:13:52.393Z,99274.91
2023-03-30T12:15:40.537Z,99278.25
2023-03-30T12:17:26.106Z,99278.91
2023-03-30T12:19:07.404Z,99255.88
2023-03-30T12:20:48.002Z,99248.91
2023-03-30T12:22:32.746Z,99258.81
2023-03-30T12:24:20.305Z,99242.47
2023-03-30T12:26:26.261Z,99255.69
2023-03-30T12:28:02.815Z,99249.69
2023-03-30T12:30:15.228Z,99242.34
2023-03-30T12:31:56.215Z,99242.00
2023-03-30T12:33:46.757Z,99244.75
2023-03-30T12:35:49.735Z,99242.06
2023-03-30T12:37:26.771Z,99228.28
2023-03-30T12:39:02.398Z,99224.94
2023-03-30T12:40:34.398Z,99235.44
2023-03-30T12:42:27.088Z,99221.81
2023-03-30T12:44:15.041Z,99217.84
2023-03-30T12:46:08.036Z,99221.84
2023-03-30T12:48:17.590Z,99223.75
2023-03-30T12:50:04.361Z,99225.28
2023-03-30T12:51:54.103Z,99212.50
2023-03-30T12:53:51.609Z,99235.22
2023-03-30T12:55:46.254Z,99223.91
2023-03-30T12:57:39.239Z,99208.38
2023-03-30T12:59:42.085Z,99216.19
2023-03-30T13:01:16.733Z,99202.34
2023-03-30T13:03:17.277Z,99210.72
2023-03-30T13:04:49.777Z,99197.50
2023-03-30T13:06:37.265Z,99212.03
2023-03-30T13:08:19.219Z,99204.03
2023-03-30T13:09:59.999Z,99213.09
2023-03-30T13:11:54.073Z,99207.84
2023-03-30T13:13:48.160Z,99215.63
2023-03-30T13:15:33.428Z,99207.63
2023-03-30T13:17:07.989Z,99211.59
2023-03-30T13:18:54.430Z,99209.69
2023-03-30T13:20:32.960Z,99224.63
2023-03-30T13:22:28.048Z,99207.59
2023-03-30T13:24:24.187Z,99198.56
2023-03-30T13:26:06.317Z,99215.41
2023-03-30T13:27:42.011Z,99213.53
2023-03-30T13:29:17.348Z,99205.53
2023-03-30T13:30:49.363Z,99200.28
2023-03-30T13:32:34.593Z,99217.31
2023-03-30T13:34:24.754Z,99221.31
2023-03-30T13:36:22.416Z,99217.09
2023-03-30T13:38:12.867Z,99202.56
2023-03-30T13:40:27.293Z,99214.13
2023-03-30T13:42:23.637Z,99208.84
2023-03-30T13:44:20.797Z,99208.63
2023-03-30T13:46:13.847Z,99198.78
2023-03-30T13:48:00.645Z,99201.50
2023-03-30T13:50:03.684Z,99198.72
2023-03-30T13:51:38.831Z,99192.22
2023-03-30T13:53:11.246Z,99193.25
2023-03-30T13:54:44.461Z,99199.59
2023-03-30T13:56:16.860Z,99199.78
2023-03-30T13:57:48.907Z,99208.81
2023-03-30T13:59:24.121Z,99196.22
2023-03-30T14:01:02.221Z,99196.22
2023-03-30T14:02:39.744Z,99192.41
2023-03-30T14:04:13.901Z,99183.81
2023-03-30T14:05:45.854Z,99177.75
2023-03-30T14:07:22.630Z,99189.09
2023-03-30T14:09:06.436Z,99191.44
2023-03-30T14:10:38.321Z,99191.22
2023-03-30T14:12:13.716Z,99181.19
2023-03-30T14:13:49.477Z,99187.06
2023-03-30T14:15:24.667Z,99183.66
2023-03-30T14:16:58.795Z,99176.72
2023-03-30T14:18:30.784Z,99180.28
2023-03-30T14:20:24.362Z,99177.72
2023-03-30T14:22:01.107Z,99172.88
2023-03-30T14:23:37.869Z,99175.59
2023-03-30T14:25:29.868Z,99156.88
2023-03-30T14:27:14.425Z,99144.66
2023-03-30T14:28:47.085Z,99152.03
2023-03-30T14:30:21.988Z,99151.63
2023-03-30T14:32:06.634Z,99148.22
2023-03-30T14:33:41.090Z,99155.78
2023-03-30T14:35:18.610Z,99147.59
2023-03-30T14:36:50.568Z,99141.88
2023-03-30T14:38:59.266Z,99138.06
2023-03-30T14:40:31.768Z,99135.06
2023-03-30T14:42:36.450Z,99146.03
2023-03-30T14:44:12.148Z,99151.22
2023-03-30T14:45:44.554Z,99147.44
2023-03-30T14:47:21.088Z,99146.63
2023-03-30T14:48:52.991Z,99158.00
2023-03-30T14:50:26.229Z,99157.16
2023-03-30T14:52:22.702Z,99138.50
2023-03-30T14:53:55.365Z,99130.13
2023-03-30T14:55:28.179Z,99136.47
2023-03-30T14:57:03.575Z,99142.16
2023-03-30T14:58:35.579Z,99130.19
2023-03-30T15:00:23.013Z,99139.88
2023-03-30T15:01:56.631Z,99128.34
2023-03-30T15:03:34.320Z,99133.41
2023-03-30T15:05:08.919Z,99139.47
2023-03-30T15:06:41.747Z,99139.72
2023-03-30T15:08:21.415Z,99150.22
2023-03-30T15:09:59.121Z,99151.91
2023-03-30T15:11:34.641Z,99148.38
2023-03-30T15:13:07.893Z,99148.78
2023-03-30T15:14:40.525Z,99157.59
2023-03-30T15:16:21.122Z,99185.31
2023-03-30T15:17:53.139Z,99161.16
2023-03-30T15:19:30.258Z,99153.59
2023-03-30T15:21:02.842Z,99150.13
2023-03-30T15:22:37.901Z,99152.38
2023-03-30T15:24:16.866Z,99139.72
2023-03-30T15:25:49.480Z,99140.88
2023-03-30T15:27:22.368Z,99138.75
2023-03-30T15:28:58.632Z,99146.03
2023-03-30T15:30:36.855Z,99143.06
2023-03-30T15:32:20.223Z,99162.94
2023-03-30T15:33:54.343Z,99212.38
2023-03-30T15:35:32.220Z,99247.97
2023-03-30T15:37:04.146Z,99263.16
2023-03-30T15:38:45.096Z,99278.50
2023-03-30T15:40:28.723Z,99287.00
2023-03-30T15:42:06.002Z,99277.09
2023-03-30T15:44:11.997Z,99275.78
2023-03-30T15:45:52.910Z,99293.84
2023-03-30T15:47:24.830Z,99297.06
2023-03-30T15:48:58.105Z,99283.25
2023-03-30T15:50:30.289Z,99272.13
2023-03-30T15:52:19.932Z,99270.31
2023-03-30T15:53:58.197Z,99281.97
2023-03-30T15:55:33.464Z,99285.09
2023-03-30T15:57:14.202Z,99280.53
2023-03-30T15:58:46.355Z,99283.03
2023-03-30T16:00:23.749Z,99272.00
2023-03-30T16:02:01.136Z,99267.53
2023-03-30T16:03:36.648Z,99274.69
2023-03-30T16:05:18.102Z,99275.56
2023-03-30T16:06:50.690Z,99264.69
2023-03-30T16:08:22.512Z,99279.09
2023-03-30T16:09:54.383Z,99298.53
2023-03-30T16:11:26.725Z,99289.31
2023-03-30T16:13:00.346Z,99297.66
2023-03-30T16:14:32.882Z,99300.59
2023-03-30T16:16:05.273Z,99291.75
2023-03-30T16:17:37.633Z,99296.03
2023-03-30T16:19:14.839Z,99282.31
2023-03-30T16:20:46.757Z,99285.47
2023-03-30T16:22:18.611Z,99264.53
2023-03-30T16:23:52.233Z,99264.81
2023-03-30T16:25:41.606Z,99274.22
2023-03-30T16:27:16.467Z,99273.69
2023-03-30T16:28:51.711Z,99275.00
2023-03-30T16:30:34.373Z,99287.78
2023-03-30T16:32:06.416Z,99281.84
2023-03-30T16:33:38.344Z,99284.00
2023-03-30T16:35:10.327Z,99284.13
2023-03-30T16:36:42.486Z,99286.16
2023-03-30T16:38:19.094Z,99293.69
2023-03-30T16:39:51.095Z,99287.69
2023-03-30T16:41:23.441Z,99292.53
2023-03-30T16:42:55.403Z,99289.16
2023-03-30T16:44:27.298Z,99283.22
2023-03-30T16:45:59.336Z,99282.69
2023-03-30T16:47:32.153Z,99291.91
2023-03-30T16:49:04.209Z,99285.09
2023-03-30T16:50:42.256Z,99290.81
2023-03-30T16:52:14.248Z,99293.81
2023-03-30T16:53:46.256Z,99287.72
2023-03-30T16:55:19.052Z,99284.31
2023-03-30T16:56:51.013Z,99292.69
2023-03-30T16:58:22.904Z,99291.00
2023-03-30T16:59:54.751Z,99286.63
2023-03-30T17:01:28.755Z,99293.69
2023-03-30T17:03:00.833Z,99288.31
2023-03-30T17:04:32.760Z,99293.69
2023-03-30T17:06:05.305Z,99290.00
2023-03-30T17:07:37.455Z,99302.31
2023-03-30T17:09:13.932Z,99291.41
2023-03-30T17:10:45.821Z,99302.88
2023-03-30T17:12:17.805Z,99295.50
2023-03-30T17:13:50.085Z,99302.56
2023-03-30T17:15:23.749Z,99299.75
2023-03-30T17:16:55.842Z,99306.81
2023-03-30T17:18:28.374Z,99316.59
2023-03-30T17:20:18.104Z,99318.59
2023-03-30T17:21:50.522Z,99325.50
2023-03-30T17:23:24.530Z,99322.81
2023-03-30T17:24:56.601Z,99320.13
2023-03-30T17:26:28.821Z,99324.84
2023-03-30T17:28:01.239Z,99325.69
2023-03-30T17:29:33.339Z,99326.81
2023-03-30T17:31:12.920Z,99325.13
2023-03-30T17:32:45.469Z,99323.44
2023-03-30T17:34:17.300Z,99327.81
2023-03-30T17:35:54.304Z,99329.13
2023-03-30T17:37:26.255Z,99322.84
2023-03-30T17:38:59.770Z,99320.50
2023-03-30T17:40:32.594Z,99317.94
2023-03-30T17:42:04.769Z,99312.84
2023-03-30T17:43:36.825Z,99316.81
2023-03-30T17:45:09.359Z,99322.50
2023-03-30T17:46:43.179Z,99317.41
2023-03-30T17:48:20.264Z,99317.88
2023-03-30T17:49:52.131Z,99315.31
2023-03-30T17:51:24.002Z,99312.22
2023-03-30T17:52:56.725Z,99322.41
2023-03-30T17:54:30.311Z,99317.31
2023-03-30T17:56:02.190Z,99313.22
2023-03-30T17:57:34.132Z,99324.44
2023-03-30T17:59:10.774Z,99322.16
2023-03-30T18:00:42.806Z,99321.59
2023-03-30T18:02:14.663Z,99312.97
2023-03-30T18:03:46.627Z,99317.78
2023-03-30T18:05:19.847Z,99318.38
2023-03-30T18:06:52.481Z,99325.03
2023-03-30T18:08:25.460Z,99324.47
2023-03-30T18:09:57.355Z,99334.81
2023-03-30T18:11:29.226Z,99332.56
2023-03-30T18:13:01.061Z,99329.41
2023-03-30T18:14:32.848Z,99321.59
2023-03-30T18:16:05.198Z,99325.59
2023-03-30T18:17:37.583Z,99316.94
2023-03-30T18:19:11.540Z,99325.31
2023-03-30T18:20:46.573Z,99327.44
2023-03-30T18:22:18.417Z,99331.41
2023-03-30T18:23:50.263Z,99327.25
2023-03-30T18:25:31.946Z,99332.91
2023-03-30T18:27:04.657Z,99337.72
2023-03-30T18:28:36.763Z,99340.69
2023-03-30T18:30:37.758Z,99337.44
2023-03-30T18:32:09.623Z,99336.75
2023-03-30T18:33:41.590Z,99337.88
2023-03-30T18:35:14.432Z,99339.00
2023-03-30T18:36:46.283Z,99346.38
2023-03-30T18:38:20.868Z,99333.31
2023-03-30T18:39:52.873Z,99339.81
2023-03-30T18:41:24.785Z,99348.03
2023-03-30T18:42:57.479Z,99339.25
2023-03-30T18:44:29.423Z,99338.69
2023-03-30T18:46:02.354Z,99349.69
2023-03-30T18:47:34.542Z,99356.06
2023-03-30T18:49:12.588Z,99362.56
2023-03-30T18:50:51.733Z,99364.53
2023-03-30T18:52:23.658Z,99371.75
2023-03-30T18:53:56.945Z,99363.81
2023-03-30T18:55:30.764Z,99367.47
2023-03-30T18:57:02.694Z,99370.31
2023-03-30T18:58:41.582Z,99368.63
2023-03-30T19:00:20.274Z,99378.38
2023-03-30T19:01:52.169Z,99373.16
2023-03-30T19:03:25.784Z,99374.13
2023-03-30T19:04:59.293Z,99372.28
2023-03-30T19:06:31.279Z,99374.97
2023-03-30T19:08:03.320Z,99375.13
2023-03-30T19:09:42.963Z,99383.75
2023-03-30T19:11:23.850Z,99379.50
2023-03-30T19:12:56.302Z,99383.47
2023-03-30T19:14:28.214Z,99384.47
2023-03-30T19:16:00.668Z,99381.66
2023-03-30T19:17:32.584Z,99390.44
2023-03-30T19:19:04.511Z,99395.53
2023-03-30T19:20:39.942Z,99391.00
2023-03-30T19:22:12.619Z,99393.69
2023-03-30T19:23:44.588Z,99388.03
2023-03-30T19:25:18.449Z,99399.50
2023-03-30T19:26:50.981Z,99397.53
2023-03-30T19:28:22.870Z,99402.63
2023-03-30T19:29:54.877Z,99399.66
2023-03-30T19:31:26.813Z,99398.41
2023-03-30T19:33:00.664Z,99400.81